sensor_id;sensor_type;location;lat;lon;timestamp;pressure;altitude;pressure_sealevel;temperature;humidity
49063;BME280;34876;51.464;-0.150;2023-04-05T00:03:47;102425.07;;;17.37;34.13
49063;BME280;34876;51.464;-0.150;2023-04-05T00:06:17;102422.91;;;17.38;34.09
49063;BME280;34876;51.464;-0.150;2023-04-05T00:08:49;102419.79;;;17.38;33.96
49063;BME280;34876;51.464;-0.150;2023-04-05T00:11:29;102413.46;;;17.36;34.09
49063;BME280;34876;51.464;-0.150;2023-04-05T00:14:05;102412.71;;;17.37;34.04
49063;BME280;34876;51.464;-0.150;2023-04-05T00:16:34;102407.49;;;17.36;34.05
49063;BME280;34876;51.464;-0.150;2023-04-05T00:19:03;102402.67;;;17.36;34.08
49063;BME280;34876;51.464;-0.150;2023-04-05T00:21:33;102397.86;;;17.36;34.01
49063;BME280;34876;51.464;-0.150;2023-04-05T00:24:03;102394.05;;;17.37;33.99
49063;BME280;34876;51.464;-0.150;2023-04-05T00:26:32;102389.92;;;17.36;33.97
49063;BME280;34876;51.464;-0.150;2023-04-05T00:29:01;102390.00;;;17.31;34.20
49063;BME280;34876;51.464;-0.150;2023-04-05T00:31:36;102387.35;;;17.34;34.14
49063;BME280;34876;51.464;-0.150;2023-04-05T00:34:07;102386.67;;;17.37;34.13
49063;BME280;34876;51.464;-0.150;2023-04-05T00:36:35;102388.19;;;17.36;34.10
49063;BME280;34876;51.464;-0.150;2023-04-05T00:39:11;102387.91;;;17.36;34.11
49063;BME280;34876;51.464;-0.150;2023-04-05T00:41:41;102388.45;;;17.37;33.94
49063;BME280;34876;51.464;-0.150;2023-04-05T00:44:09;102388.81;;;17.36;33.99
49063;BME280;34876;51.464;-0.150;2023-04-05T00:46:39;102387.60;;;17.37;33.98
49063;BME280;34876;51.464;-0.150;2023-04-05T00:49:08;102386.37;;;17.35;34.03
49063;BME280;34876;51.464;-0.150;2023-04-05T00:51:39;102384.73;;;17.36;33.98
49063;BME280;34876;51.464;-0.150;2023-04-05T00:54:09;102381.26;;;17.36;34.09
49063;BME280;34876;51.464;-0.150;2023-04-05T00:56:40;102378.22;;;17.37;33.92
49063;BME280;34876;51.464;-0.150;2023-04-05T00:59:10;102377.99;;;17.37;34.01
49063;BME280;34876;51.464;-0.150;2023-04-05T01:01:39;102378.82;;;17.37;33.97
49063;BME280;34876;51.464;-0.150;2023-04-05T01:04:10;102378.03;;;17.38;33.95
49063;BME280;34876;51.464;-0.150;2023-04-05T01:06:51;102374.01;;;17.37;33.86
49063;BME280;34876;51.464;-0.150;2023-04-05T01:09:33;102368.99;;;17.37;33.95
49063;BME280;34876;51.464;-0.150;2023-04-05T01:12:08;102367.81;;;17.37;33.94
49063;BME280;34876;51.464;-0.150;2023-04-05T01:14:46;102365.40;;;17.37;33.88
49063;BME280;34876;51.464;-0.150;2023-04-05T01:17:16;102360.73;;;17.39;33.92
49063;BME280;34876;51.464;-0.150;2023-04-05T01:19:45;102353.87;;;17.38;33.85
49063;BME280;34876;51.464;-0.150;2023-04-05T01:22:38;102345.22;;;17.37;33.91
49063;BME280;34876;51.464;-0.150;2023-04-05T01:25:28;102342.21;;;17.37;33.83
49063;BME280;34876;51.464;-0.150;2023-04-05T01:28:28;102336.21;;;17.37;33.89
49063;BME280;34876;51.464;-0.150;2023-04-05T01:31:06;102333.96;;;17.38;33.92
49063;BME280;34876;51.464;-0.150;2023-04-05T01:33:43;102329.64;;;17.38;33.91
49063;BME280;34876;51.464;-0.150;2023-04-05T01:36:18;102326.96;;;17.38;33.85
49063;BME280;34876;51.464;-0.150;2023-04-05T01:38:53;102325.01;;;17.38;33.83
49063;BME280;34876;51.464;-0.150;2023-04-05T01:41:22;102323.32;;;17.38;33.83
49063;BME280;34876;51.464;-0.150;2023-04-05T01:43:52;102320.32;;;17.37;33.88
49063;BME280;34876;51.464;-0.150;2023-04-05T01:46:26;102321.48;;;17.38;33.83
49063;BME280;34876;51.464;-0.150;2023-04-05T01:48:56;102312.66;;;17.38;33.77
49063;BME280;34876;51.464;-0.150;2023-04-05T01:51:25;102304.13;;;17.36;33.84
49063;BME280;34876;51.464;-0.150;2023-04-05T01:53:55;102304.89;;;17.33;33.54
49063;BME280;34876;51.464;-0.150;2023-04-05T01:56:23;102300.80;;;17.36;33.79
49063;BME280;34876;51.464;-0.150;2023-04-05T01:58:51;102296.48;;;17.36;33.84
49063;BME280;34876;51.464;-0.150;2023-04-05T02:01:21;102295.02;;;17.36;33.84
49063;BME280;34876;51.464;-0.150;2023-04-05T02:03:50;102292.43;;;17.37;33.79
49063;BME280;34876;51.464;-0.150;2023-04-05T02:06:21;102288.19;;;17.37;33.87
49063;BME280;34876;51.464;-0.150;2023-04-05T02:08:51;102285.43;;;17.37;33.74
49063;BME280;34876;51.464;-0.150;2023-04-05T02:11:21;102283.43;;;17.37;33.76
49063;BME280;34876;51.464;-0.150;2023-04-05T02:13:50;102283.99;;;17.37;33.82
49063;BME280;34876;51.464;-0.150;2023-04-05T02:16:20;102278.94;;;17.37;33.76
49063;BME280;34876;51.464;-0.150;2023-04-05T02:18:50;102275.92;;;17.38;33.69
49063;BME280;34876;51.464;-0.150;2023-04-05T02:21:19;102274.75;;;17.38;33.82
49063;BME280;34876;51.464;-0.150;2023-04-05T02:23:48;102275.38;;;17.39;33.71
49063;BME280;34876;51.464;-0.150;2023-04-05T02:26:24;102274.77;;;17.39;33.67
49063;BME280;34876;51.464;-0.150;2023-04-05T02:28:52;102267.78;;;17.37;33.77
49063;BME280;34876;51.464;-0.150;2023-04-05T02:31:22;102267.50;;;17.37;33.78
49063;BME280;34876;51.464;-0.150;2023-04-05T02:33:52;102269.44;;;17.37;33.69
49063;BME280;34876;51.464;-0.150;2023-04-05T02:36:22;102268.16;;;17.37;33.70
49063;BME280;34876;51.464;-0.150;2023-04-05T02:38:51;102266.03;;;17.37;33.67
49063;BME280;34876;51.464;-0.150;2023-04-05T02:41:21;102267.46;;;17.38;33.77
49063;BME280;34876;51.464;-0.150;2023-04-05T02:43:51;102268.95;;;17.39;33.68
49063;BME280;34876;51.464;-0.150;2023-04-05T02:46:21;102270.86;;;17.39;33.70
49063;BME280;34876;51.464;-0.150;2023-04-05T02:48:51;102274.00;;;17.38;33.70
49063;BME280;34876;51.464;-0.150;2023-04-05T02:51:21;102275.56;;;17.38;33.63
49063;BME280;34876;51.464;-0.150;2023-04-05T02:53:50;102272.29;;;17.39;33.61
49063;BME280;34876;51.464;-0.150;2023-04-05T02:56:21;102268.58;;;17.38;33.65
49063;BME280;34876;51.464;-0.150;2023-04-05T02:58:51;102265.11;;;17.38;33.70
49063;BME280;34876;51.464;-0.150;2023-04-05T03:01:21;102262.21;;;17.38;33.66
49063;BME280;34876;51.464;-0.150;2023-04-05T03:03:49;102264.39;;;17.38;33.67
49063;BME280;34876;51.464;-0.150;2023-04-05T03:06:19;102264.44;;;17.38;33.64
49063;BME280;34876;51.464;-0.150;2023-04-05T03:08:48;102262.08;;;17.39;33.56
49063;BME280;34876;51.464;-0.150;2023-04-05T03:11:18;102257.49;;;17.39;33.57
49063;BME280;34876;51.464;-0.150;2023-04-05T03:13:48;102255.70;;;17.39;33.57
49063;BME280;34876;51.464;-0.150;2023-04-05T03:16:23;102255.56;;;17.38;33.66
49063;BME280;34876;51.464;-0.150;2023-04-05T03:18:53;102257.16;;;17.39;33.62
49063;BME280;34876;51.464;-0.150;2023-04-05T03:21:23;102249.63;;;17.38;33.61
49063;BME280;34876;51.464;-0.150;2023-04-05T03:23:52;102245.01;;;17.37;33.64
49063;BME280;34876;51.464;-0.150;2023-04-05T03:26:21;102243.79;;;17.37;33.62
49063;BME280;34876;51.464;-0.150;2023-04-05T03:28:51;102249.35;;;17.38;33.58
49063;BME280;34876;51.464;-0.150;2023-04-05T03:31:21;102250.09;;;17.37;33.68
49063;BME280;34876;51.464;-0.150;2023-04-05T03:33:50;102246.79;;;17.37;33.68
49063;BME280;34876;51.464;-0.150;2023-04-05T03:36:19;102242.30;;;17.38;33.59
49063;BME280;34876;51.464;-0.150;2023-04-05T03:38:49;102239.97;;;17.37;33.54
49063;BME280;34876;51.464;-0.150;2023-04-05T03:41:19;102240.38;;;17.36;33.61
49063;BME280;34876;51.464;-0.150;2023-04-05T03:43:49;102237.00;;;17.38;33.53
49063;BME280;34876;51.464;-0.150;2023-04-05T03:46:18;102234.64;;;17.38;33.56
49063;BME280;34876;51.464;-0.150;2023-04-05T03:48:48;102230.98;;;17.39;33.61
49063;BME280;34876;51.464;-0.150;2023-04-05T03:51:17;102231.29;;;17.38;33.54
49063;BME280;34876;51.464;-0.150;2023-04-05T03:53:46;102228.95;;;17.37;33.59
49063;BME280;34876;51.464;-0.150;2023-04-05T03:56:15;102220.41;;;17.37;33.57
49063;BME280;34876;51.464;-0.150;2023-04-05T04:01:21;102210.90;;;17.35;33.61
49063;BME280;34876;51.464;-0.150;2023-04-05T04:03:49;102209.21;;;17.35;33.67
49063;BME280;34876;51.464;-0.150;2023-04-05T04:06:19;102206.86;;;17.36;33.59
49063;BME280;34876;51.464;-0.150;2023-04-05T04:08:49;102203.34;;;17.37;33.45
49063;BME280;34876;51.464;-0.150;2023-04-05T04:11:19;102200.33;;;17.37;33.54
49063;BME280;34876;51.464;-0.150;2023-04-05T04:13:49;102199.38;;;17.37;33.61
49063;BME280;34876;51.464;-0.150;2023-04-05T04:16:18;102201.23;;;17.37;33.55
49063;BME280;34876;51.464;-0.150;2023-04-05T04:18:48;102202.37;;;17.36;33.55
49063;BME280;34876;51.464;-0.150;2023-04-05T04:21:24;102200.99;;;17.37;33.69
49063;BME280;34876;51.464;-0.150;2023-04-05T04:24:10;102203.79;;;17.37;33.50
49063;BME280;34876;51.464;-0.150;2023-04-05T04:26:46;102203.30;;;17.37;33.50
49063;BME280;34876;51.464;-0.150;2023-04-05T04:29:16;102203.49;;;17.38;33.47
49063;BME280;34876;51.464;-0.150;2023-04-05T04:31:45;102201.86;;;17.38;33.46
49063;BME280;34876;51.464;-0.150;2023-04-05T04:34:15;102205.05;;;17.38;33.54
49063;BME280;34876;51.464;-0.150;2023-04-05T04:36:44;102210.50;;;17.37;33.51
49063;BME280;34876;51.464;-0.150;2023-04-05T04:39:13;102212.50;;;17.36;33.52
49063;BME280;34876;51.464;-0.150;2023-04-05T04:41:44;102213.55;;;17.38;33.59
49063;BME280;34876;51.464;-0.150;2023-04-05T04:44:13;102211.59;;;17.38;33.58
49063;BME280;34876;51.464;-0.150;2023-04-05T04:46:43;102212.53;;;17.39;33.45
49063;BME280;34876;51.464;-0.150;2023-04-05T04:49:13;102209.70;;;17.38;33.51
49063;BME280;34876;51.464;-0.150;2023-04-05T04:51:42;102214.32;;;17.39;33.46
49063;BME280;34876;51.464;-0.150;2023-04-05T04:54:11;102216.08;;;17.38;33.49
49063;BME280;34876;51.464;-0.150;2023-04-05T04:56:46;102217.63;;;17.38;33.49
49063;BME280;34876;51.464;-0.150;2023-04-05T04:59:14;102220.53;;;17.39;33.50
49063;BME280;34876;51.464;-0.150;2023-04-05T05:01:44;102222.80;;;17.38;33.49
49063;BME280;34876;51.464;-0.150;2023-04-05T05:04:14;102222.66;;;17.38;33.46
49063;BME280;34876;51.464;-0.150;2023-04-05T05:06:43;102224.17;;;17.39;33.46
49063;BME280;34876;51.464;-0.150;2023-04-05T05:09:12;102218.53;;;17.38;33.49
49063;BME280;34876;51.464;-0.150;2023-04-05T05:11:41;102218.74;;;17.39;33.48
49063;BME280;34876;51.464;-0.150;2023-04-05T05:14:15;102222.72;;;17.38;33.54
49063;BME280;34876;51.464;-0.150;2023-04-05T05:16:45;102223.57;;;17.38;33.47
49063;BME280;34876;51.464;-0.150;2023-04-05T05:19:15;102219.07;;;17.39;33.50
49063;BME280;34876;51.464;-0.150;2023-04-05T05:21:44;102212.97;;;17.39;33.42
49063;BME280;34876;51.464;-0.150;2023-04-05T05:24:13;102212.13;;;17.39;33.46
49063;BME280;34876;51.464;-0.150;2023-04-05T05:26:41;102212.46;;;17.39;33.46
49063;BME280;34876;51.464;-0.150;2023-04-05T05:29:15;102215.89;;;17.39;33.52
49063;BME280;34876;51.464;-0.150;2023-04-05T05:31:45;102217.36;;;17.38;33.43
49063;BME280;34876;51.464;-0.150;2023-04-05T05:34:15;102216.49;;;17.39;33.46
49063;BME280;34876;51.464;-0.150;2023-04-05T05:36:45;102217.19;;;17.38;33.45
49063;BME280;34876;51.464;-0.150;2023-04-05T05:39:15;102213.29;;;17.37;33.56
49063;BME280;34876;51.464;-0.150;2023-04-05T05:41:45;102213.75;;;17.39;33.43
49063;BME280;34876;51.464;-0.150;2023-04-05T05:44:18;102212.86;;;17.39;33.51
49063;BME280;34876;51.464;-0.150;2023-04-05T05:46:47;102210.38;;;17.40;33.47
49063;BME280;34876;51.464;-0.150;2023-04-05T05:49:16;102211.05;;;17.40;33.45
49063;BME280;34876;51.464;-0.150;2023-04-05T05:51:45;102212.54;;;17.40;33.44
49063;BME280;34876;51.464;-0.150;2023-04-05T05:54:15;102209.36;;;17.42;33.36
49063;BME280;34876;51.464;-0.150;2023-04-05T05:56:44;102209.38;;;17.41;33.43
49063;BME280;34876;51.464;-0.150;2023-04-05T05:59:13;102210.47;;;17.42;33.50
49063;BME280;34876;51.464;-0.150;2023-04-05T06:01:43;102210.78;;;17.43;33.39
49063;BME280;34876;51.464;-0.150;2023-04-05T06:04:13;102209.12;;;17.43;33.43
49063;BME280;34876;51.464;-0.150;2023-04-05T06:06:43;102207.90;;;17.42;33.42
49063;BME280;34876;51.464;-0.150;2023-04-05T06:09:13;102207.78;;;17.43;33.48
49063;BME280;34876;51.464;-0.150;2023-04-05T06:11:42;102207.64;;;17.44;33.46
49063;BME280;34876;51.464;-0.150;2023-04-05T06:14:12;102206.89;;;17.44;33.38
49063;BME280;34876;51.464;-0.150;2023-04-05T06:16:41;102206.17;;;17.46;33.37
49063;BME280;34876;51.464;-0.150;2023-04-05T06:19:10;102203.45;;;17.47;33.32
49063;BME280;34876;51.464;-0.150;2023-04-05T06:21:40;102203.01;;;17.47;33.44
49063;BME280;34876;51.464;-0.150;2023-04-05T06:24:09;102200.91;;;17.48;33.34
49063;BME280;34876;51.464;-0.150;2023-04-05T06:26:38;102200.60;;;17.49;33.34
49063;BME280;34876;51.464;-0.150;2023-04-05T06:29:07;102201.73;;;17.51;33.35
49063;BME280;34876;51.464;-0.150;2023-04-05T06:31:36;102200.48;;;17.51;33.36
49063;BME280;34876;51.464;-0.150;2023-04-05T06:34:06;102198.56;;;17.52;33.28
49063;BME280;34876;51.464;-0.150;2023-04-05T06:36:36;102199.60;;;17.53;33.29
49063;BME280;34876;51.464;-0.150;2023-04-05T06:39:05;102199.66;;;17.55;33.25
49063;BME280;34876;51.464;-0.150;2023-04-05T06:41:40;102197.29;;;17.55;33.24
49063;BME280;34876;51.464;-0.150;2023-04-05T06:44:09;102194.38;;;17.59;33.23
49063;BME280;34876;51.464;-0.150;2023-04-05T06:46:38;102193.35;;;17.62;33.09
49063;BME280;34876;51.464;-0.150;2023-04-05T06:49:07;102189.54;;;17.62;33.13
49063;BME280;34876;51.464;-0.150;2023-04-05T06:51:36;102186.77;;;17.65;33.14
49063;BME280;34876;51.464;-0.150;2023-04-05T06:54:06;102180.52;;;17.65;33.07
49063;BME280;34876;51.464;-0.150;2023-04-05T06:56:35;102177.35;;;17.68;33.07
49063;BME280;34876;51.464;-0.150;2023-04-05T06:59:04;102173.16;;;17.69;33.07
49063;BME280;34876;51.464;-0.150;2023-04-05T07:01:34;102172.64;;;17.70;33.10
49063;BME280;34876;51.464;-0.150;2023-04-05T07:04:03;102174.98;;;17.72;32.97
49063;BME280;34876;51.464;-0.150;2023-04-05T07:06:33;102177.05;;;17.76;33.03
49063;BME280;34876;51.464;-0.150;2023-04-05T07:09:03;102177.52;;;17.75;33.00
49063;BME280;34876;51.464;-0.150;2023-04-05T07:11:32;102176.19;;;17.73;33.08
49063;BME280;34876;51.464;-0.150;2023-04-05T07:14:01;102173.00;;;17.73;33.09
49063;BME280;34876;51.464;-0.150;2023-04-05T07:16:31;102172.72;;;17.73;33.14
49063;BME280;34876;51.464;-0.150;2023-04-05T07:19:00;102168.79;;;17.73;33.16
49063;BME280;34876;51.464;-0.150;2023-04-05T07:21:30;102169.40;;;17.71;33.19
49063;BME280;34876;51.464;-0.150;2023-04-05T07:23:59;102168.74;;;17.71;33.16
49063;BME280;34876;51.464;-0.150;2023-04-05T07:26:28;102166.81;;;17.72;33.20
49063;BME280;34876;51.464;-0.150;2023-04-05T07:28:57;102166.95;;;17.69;33.24
49063;BME280;34876;51.464;-0.150;2023-04-05T07:31:27;102165.56;;;17.69;33.23
49063;BME280;34876;51.464;-0.150;2023-04-05T07:34:02;102166.80;;;17.67;33.36
49063;BME280;34876;51.464;-0.150;2023-04-05T07:36:31;102167.60;;;17.68;33.43
49063;BME280;34876;51.464;-0.150;2023-04-05T07:39:00;102169.10;;;17.67;33.48
49063;BME280;34876;51.464;-0.150;2023-04-05T07:41:31;102168.84;;;17.68;33.49
49063;BME280;34876;51.464;-0.150;2023-04-05T07:44:00;102167.69;;;17.65;33.62
49063;BME280;34876;51.464;-0.150;2023-04-05T07:46:30;102164.41;;;17.66;33.58
49063;BME280;34876;51.464;-0.150;2023-04-05T07:48:59;102163.87;;;17.69;33.61
49063;BME280;34876;51.464;-0.150;2023-04-05T07:51:29;102161.77;;;17.67;33.64
49063;BME280;34876;51.464;-0.150;2023-04-05T07:53:57;102160.45;;;17.68;33.70
49063;BME280;34876;51.464;-0.150;2023-04-05T07:56:27;102159.00;;;17.69;33.62
49063;BME280;34876;51.464;-0.150;2023-04-05T07:58:55;102157.80;;;17.70;33.64
49063;BME280;34876;51.464;-0.150;2023-04-05T08:01:25;102158.48;;;17.72;33.66
49063;BME280;34876;51.464;-0.150;2023-04-05T08:03:54;102159.08;;;17.74;33.64
49063;BME280;34876;51.464;-0.150;2023-04-05T08:06:24;102156.04;;;17.71;33.68
49063;BME280;34876;51.464;-0.150;2023-04-05T08:08:59;102152.51;;;17.71;33.69
49063;BME280;34876;51.464;-0.150;2023-04-05T08:11:28;102148.31;;;17.71;33.74
49063;BME280;34876;51.464;-0.150;2023-04-05T08:13:57;102149.93;;;17.73;33.70
49063;BME280;34876;51.464;-0.150;2023-04-05T08:16:26;102154.19;;;17.75;33.78
49063;BME280;34876;51.464;-0.150;2023-04-05T08:18:55;102150.97;;;17.76;33.77
49063;BME280;34876;51.464;-0.150;2023-04-05T08:21:25;102150.53;;;17.81;33.67
49063;BME280;34876;51.464;-0.150;2023-04-05T08:23:53;102148.56;;;17.78;33.70
49063;BME280;34876;51.464;-0.150;2023-04-05T08:26:23;102148.54;;;17.78;33.71
49063;BME280;34876;51.464;-0.150;2023-04-05T08:28:57;102149.69;;;17.79;33.77
49063;BME280;34876;51.464;-0.150;2023-04-05T08:31:25;102148.50;;;17.80;33.76
49063;BME280;34876;51.464;-0.150;2023-04-05T08:33:54;102144.51;;;17.80;33.77
49063;BME280;34876;51.464;-0.150;2023-04-05T08:36:24;102146.42;;;17.84;33.76
49063;BME280;34876;51.464;-0.150;2023-04-05T08:38:53;102146.18;;;17.86;33.66
49063;BME280;34876;51.464;-0.150;2023-04-05T08:41:23;102145.56;;;17.86;33.70
49063;BME280;34876;51.464;-0.150;2023-04-05T08:43:56;102148.06;;;17.87;33.76
49063;BME280;34876;51.464;-0.150;2023-04-05T08:46:26;102148.72;;;17.89;33.71
49063;BME280;34876;51.464;-0.150;2023-04-05T08:48:56;102145.60;;;17.87;33.76
49063;BME280;34876;51.464;-0.150;2023-04-05T08:51:25;102144.62;;;17.89;33.67
49063;BME280;34876;51.464;-0.150;2023-04-05T08:53:54;102147.45;;;17.92;33.68
49063;BME280;34876;51.464;-0.150;2023-04-05T08:56:25;102148.14;;;17.93;33.67
49063;BME280;34876;51.464;-0.150;2023-04-05T08:59:01;102144.81;;;17.92;33.69
49063;BME280;34876;51.464;-0.150;2023-04-05T09:01:32;102142.71;;;17.93;33.69
49063;BME280;34876;51.464;-0.150;2023-04-05T09:04:05;102142.01;;;17.96;33.67
49063;BME280;34876;51.464;-0.150;2023-04-05T09:06:35;102136.11;;;17.95;33.69
49063;BME280;34876;51.464;-0.150;2023-04-05T09:09:06;102137.50;;;17.97;33.67
49063;BME280;34876;51.464;-0.150;2023-04-05T09:11:37;102134.89;;;17.98;33.64
49063;BME280;34876;51.464;-0.150;2023-04-05T09:14:07;102135.55;;;18.09;33.43
49063;BME280;34876;51.464;-0.150;2023-04-05T09:16:38;102131.81;;;18.07;33.48
49063;BME280;34876;51.464;-0.150;2023-04-05T09:19:08;102129.18;;;18.12;33.44
49063;BME280;34876;51.464;-0.150;2023-04-05T09:22:10;102124.49;;;18.13;32.65
49063;BME280;34876;51.464;-0.150;2023-04-05T09:24:40;102122.17;;;18.31;33.09
49063;BME280;34876;51.464;-0.150;2023-04-05T09:27:11;102119.39;;;18.37;32.90
49063;BME280;34876;51.464;-0.150;2023-04-05T09:29:43;102114.66;;;18.39;32.86
49063;BME280;34876;51.464;-0.150;2023-04-05T09:32:13;102115.52;;;18.45;32.77
49063;BME280;34876;51.464;-0.150;2023-04-05T09:34:43;102111.84;;;18.51;32.67
49063;BME280;34876;51.464;-0.150;2023-04-05T09:37:14;102108.88;;;18.53;32.69
49063;BME280;34876;51.464;-0.150;2023-04-05T09:39:44;102104.89;;;18.53;32.64
49063;BME280;34876;51.464;-0.150;2023-04-05T09:42:15;102099.24;;;18.59;32.53
49063;BME280;34876;51.464;-0.150;2023-04-05T09:44:50;102099.03;;;18.52;32.76
49063;BME280;34876;51.464;-0.150;2023-04-05T09:47:21;102096.64;;;18.49;33.17
49063;BME280;34876;51.464;-0.150;2023-04-05T09:49:51;102094.19;;;18.56;32.70
49063;BME280;34876;51.464;-0.150;2023-04-05T09:52:22;102096.16;;;18.45;32.96
49063;BME280;34876;51.464;-0.150;2023-04-05T09:54:52;102094.57;;;18.44;32.94
49063;BME280;34876;51.464;-0.150;2023-04-05T09:57:22;102092.60;;;18.39;33.19
49063;BME280;34876;51.464;-0.150;2023-04-05T09:59:53;102091.54;;;18.37;33.16
49063;BME280;34876;51.464;-0.150;2023-04-05T10:02:22;102086.78;;;18.47;32.94
49063;BME280;34876;51.464;-0.150;2023-04-05T10:04:51;102083.77;;;18.53;32.80
49063;BME280;34876;51.464;-0.150;2023-04-05T10:07:20;102080.19;;;18.51;32.85
49063;BME280;34876;51.464;-0.150;2023-04-05T10:09:50;102079.75;;;18.30;32.35
49063;BME280;34876;51.464;-0.150;2023-04-05T10:12:24;102074.60;;;18.54;32.82
49063;BME280;34876;51.464;-0.150;2023-04-05T10:14:54;102073.49;;;18.60;32.75
49063;BME280;34876;51.464;-0.150;2023-04-05T10:17:33;102068.71;;;18.73;32.48
49063;BME280;34876;51.464;-0.150;2023-04-05T10:20:09;102069.91;;;18.76;32.35
49063;BME280;34876;51.464;-0.150;2023-04-05T10:22:54;102067.66;;;18.82;32.34
49063;BME280;34876;51.464;-0.150;2023-04-05T10:25:30;102072.26;;;18.79;32.29
49063;BME280;34876;51.464;-0.150;2023-04-05T10:28:10;102070.45;;;18.81;32.31
49063;BME280;34876;51.464;-0.150;2023-04-05T10:30:45;102071.58;;;18.85;32.37
49063;BME280;34876;51.464;-0.150;2023-04-05T10:33:19;102066.92;;;18.74;32.64
49063;BME280;34876;51.464;-0.150;2023-04-05T10:35:58;102065.45;;;18.73;32.62
49063;BME280;34876;51.464;-0.150;2023-04-05T10:38:29;102062.00;;;18.83;32.42
49063;BME280;34876;51.464;-0.150;2023-04-05T10:41:08;102059.06;;;18.93;32.24
49063;BME280;34876;51.464;-0.150;2023-04-05T10:43:39;102058.74;;;18.88;32.29
49063;BME280;34876;51.464;-0.150;2023-04-05T10:46:10;102056.68;;;18.80;32.25
49063;BME280;34876;51.464;-0.150;2023-04-05T10:48:56;102053.73;;;18.92;32.23
49063;BME280;34876;51.464;-0.150;2023-04-05T10:51:28;102050.38;;;18.78;32.54
49063;BME280;34876;51.464;-0.150;2023-04-05T10:53:59;102044.75;;;18.83;32.42
49063;BME280;34876;51.464;-0.150;2023-04-05T10:56:30;102043.12;;;18.82;32.63
49063;BME280;34876;51.464;-0.150;2023-04-05T10:59:01;102038.70;;;18.63;32.87
49063;BME280;34876;51.464;-0.150;2023-04-05T11:01:31;102037.12;;;18.84;32.51
49063;BME280;34876;51.464;-0.150;2023-04-05T11:04:10;102035.67;;;18.85;32.43
49063;BME280;34876;51.464;-0.150;2023-04-05T11:06:40;102037.14;;;18.68;32.98
49063;BME280;34876;51.464;-0.150;2023-04-05T11:09:11;102036.34;;;18.71;32.84
49063;BME280;34876;51.464;-0.150;2023-04-05T11:11:44;102031.71;;;18.61;32.99
49063;BME280;34876;51.464;-0.150;2023-04-05T11:14:18;102026.86;;;18.59;33.11
49063;BME280;34876;51.464;-0.150;2023-04-05T11:16:51;102026.33;;;18.58;32.98
49063;BME280;34876;51.464;-0.150;2023-04-05T11:19:47;102025.70;;;18.51;33.40
49063;BME280;34876;51.464;-0.150;2023-04-05T11:22:24;102023.98;;;18.61;33.24
49063;BME280;34876;51.464;-0.150;2023-04-05T11:24:57;102017.99;;;18.60;32.90
49063;BME280;34876;51.464;-0.150;2023-04-05T11:27:28;102016.75;;;18.08;31.25
49063;BME280;34876;51.464;-0.150;2023-04-05T11:29:59;102017.08;;;18.35;33.73
49063;BME280;34876;51.464;-0.150;2023-04-05T11:32:44;102014.43;;;18.62;33.25
49063;BME280;34876;51.464;-0.150;2023-04-05T11:35:14;102011.43;;;18.64;33.37
49063;BME280;34876;51.464;-0.150;2023-04-05T11:38:07;102011.40;;;18.57;33.91
49063;BME280;34876;51.464;-0.150;2023-04-05T11:40:37;102006.81;;;18.59;33.84
49063;BME280;34876;51.464;-0.150;2023-04-05T11:43:08;102001.10;;;18.71;33.24
49063;BME280;34876;51.464;-0.150;2023-04-05T11:45:39;101998.61;;;18.66;33.46
49063;BME280;34876;51.464;-0.150;2023-04-05T11:48:10;101996.80;;;18.69;33.30
49063;BME280;34876;51.464;-0.150;2023-04-05T11:50:40;101991.27;;;18.70;33.65
49063;BME280;34876;51.464;-0.150;2023-04-05T11:53:10;101987.51;;;18.69;33.33
49063;BME280;34876;51.464;-0.150;2023-04-05T11:55:42;101986.18;;;18.65;33.55
49063;BME280;34876;51.464;-0.150;2023-04-05T11:58:13;101981.35;;;18.62;33.22
49063;BME280;34876;51.464;-0.150;2023-04-05T12:00:44;101981.17;;;18.73;33.26
49063;BME280;34876;51.464;-0.150;2023-04-05T12:03:15;101980.62;;;18.72;33.57
49063;BME280;34876;51.464;-0.150;2023-04-05T12:05:46;101975.43;;;18.56;33.57
49063;BME280;34876;51.464;-0.150;2023-04-05T12:08:17;101977.06;;;18.44;32.55
49063;BME280;34876;51.464;-0.150;2023-04-05T12:10:53;101972.47;;;18.54;33.71
49063;BME280;34876;51.464;-0.150;2023-04-05T12:13:25;101972.48;;;18.57;33.56
49063;BME280;34876;51.464;-0.150;2023-04-05T12:15:56;101968.94;;;18.51;33.73
49063;BME280;34876;51.464;-0.150;2023-04-05T12:18:27;101965.23;;;18.56;33.58
49063;BME280;34876;51.464;-0.150;2023-04-05T12:20:59;101965.83;;;18.60;33.64
49063;BME280;34876;51.464;-0.150;2023-04-05T12:23:30;101966.64;;;18.44;33.97
49063;BME280;34876;51.464;-0.150;2023-04-05T12:26:00;101957.76;;;18.52;33.76
49063;BME280;34876;51.464;-0.150;2023-04-05T12:28:49;101959.22;;;18.52;33.83
49063;BME280;34876;51.464;-0.150;2023-04-05T12:31:34;101957.08;;;18.52;33.85
49063;BME280;34876;51.464;-0.150;2023-04-05T12:34:06;101955.63;;;18.51;33.78
49063;BME280;34876;51.464;-0.150;2023-04-05T12:36:35;101955.95;;;18.27;33.98
49063;BME280;34876;51.464;-0.150;2023-04-05T12:39:06;101959.44;;;18.18;29.35
49063;BME280;34876;51.464;-0.150;2023-04-05T12:41:36;101953.70;;;18.51;33.68
49063;BME280;34876;51.464;-0.150;2023-04-05T12:44:13;101955.45;;;18.57;33.59
49063;BME280;34876;51.464;-0.150;2023-04-05T12:46:44;101952.71;;;18.54;33.49
49063;BME280;34876;51.464;-0.150;2023-04-05T12:49:15;101952.48;;;18.08;30.88
49063;BME280;34876;51.464;-0.150;2023-04-05T12:51:46;101950.17;;;18.47;33.99
49063;BME280;34876;51.464;-0.150;2023-04-05T12:54:20;101947.05;;;18.37;34.48
49063;BME280;34876;51.464;-0.150;2023-04-05T12:56:50;101949.11;;;18.50;34.44
49063;BME280;34876;51.464;-0.150;2023-04-05T12:59:25;101949.78;;;18.47;34.40
49063;BME280;34876;51.464;-0.150;2023-04-05T13:01:54;101948.04;;;18.53;34.06
49063;BME280;34876;51.464;-0.150;2023-04-05T13:04:22;101943.06;;;18.51;34.02
49063;BME280;34876;51.464;-0.150;2023-04-05T13:06:54;101941.72;;;18.53;34.22